sensor_id;sensor_type;location;lat;lon;timestamp;pressure;altitude;pressure_sealevel;temperature
76007;BMP280;64699;0.000;0.000;2024-02-14T00:02:00;100981.97;;;19.87
76007;BMP280;64699;0.000;0.000;2024-02-14T00:04:25;100976.19;;;19.85
76007;BMP280;64699;0.000;0.000;2024-02-14T00:06:50;100988.31;;;19.82
76007;BMP280;64699;0.000;0.000;2024-02-14T00:09:15;100984.47;;;19.85
76007;BMP280;64699;0.000;0.000;2024-02-14T00:11:41;100978.97;;;19.85
76007;BMP280;64699;0.000;0.000;2024-02-14T00:14:06;100984.47;;;19.85
76007;BMP280;64699;0.000;0.000;2024-02-14T00:16:38;100988.50;;;19.84
76007;BMP280;64699;0.000;0.000;2024-02-14T00:19:04;100989.97;;;19.85
76007;BMP280;64699;0.000;0.000;2024-02-14T00:21:29;100986.50;;;19.84
76007;BMP280;64699;0.000;0.000;2024-02-14T00:23:54;100994.78;;;19.84
76007;BMP280;64699;0.000;0.000;2024-02-14T00:26:22;100990.28;;;19.81
76007;BMP280;64699;0.000;0.000;2024-02-14T00:28:47;100992.31;;;19.81
76007;BMP280;64699;0.000;0.000;2024-02-14T00:31:13;100994.31;;;19.80
76007;BMP280;64699;0.000;0.000;2024-02-14T00:33:38;101007.59;;;19.82
76007;BMP280;64699;0.000;0.000;2024-02-14T00:36:03;100992.81;;;19.79
76007;BMP280;64699;0.000;0.000;2024-02-14T00:38:28;100992.81;;;19.79
76007;BMP280;64699;0.000;0.000;2024-02-14T00:40:54;100999.84;;;19.80
76007;BMP280;64699;0.000;0.000;2024-02-14T00:43:19;101000.91;;;19.77
76007;BMP280;64699;0.000;0.000;2024-02-14T00:45:44;100998.16;;;19.77
76007;BMP280;64699;0.000;0.000;2024-02-14T00:48:10;101004.63;;;19.80
76007;BMP280;64699;0.000;0.000;2024-02-14T00:50:35;101006.41;;;19.77
76007;BMP280;64699;0.000;0.000;2024-02-14T00:53:02;101008.41;;;19.77
76007;BMP280;64699;0.000;0.000;2024-02-14T00:55:28;101003.44;;;19.75
76007;BMP280;64699;0.000;0.000;2024-02-14T00:57:53;101008.19;;;19.75
76007;BMP280;64699;0.000;0.000;2024-02-14T01:00:19;101013.72;;;19.75
76007;BMP280;64699;0.000;0.000;2024-02-14T01:02:44;101007.44;;;19.74
76007;BMP280;64699;0.000;0.000;2024-02-14T01:05:09;101009.47;;;19.74
76007;BMP280;64699;0.000;0.000;2024-02-14T01:07:35;101005.97;;;19.73
76007;BMP280;64699;0.000;0.000;2024-02-14T01:10:00;101013.25;;;19.71
76007;BMP280;64699;0.000;0.000;2024-02-14T01:12:25;101012.53;;;19.70
76007;BMP280;64699;0.000;0.000;2024-02-14T01:14:51;101017.31;;;19.70
76007;BMP280;64699;0.000;0.000;2024-02-14T01:17:16;101020.06;;;19.70
76007;BMP280;64699;0.000;0.000;2024-02-14T01:19:41;101015.81;;;19.69
76007;BMP280;64699;0.000;0.000;2024-02-14T01:22:06;101014.31;;;19.68
76007;BMP280;64699;0.000;0.000;2024-02-14T01:24:33;101019.31;;;19.69
76007;BMP280;64699;0.000;0.000;2024-02-14T01:26:59;101019.09;;;19.67
76007;BMP280;64699;0.000;0.000;2024-02-14T01:29:24;101026.84;;;19.69
76007;BMP280;64699;0.000;0.000;2024-02-14T01:31:50;101026.63;;;19.67
76007;BMP280;64699;0.000;0.000;2024-02-14T01:34:15;101023.34;;;19.68
76007;BMP280;64699;0.000;0.000;2024-02-14T01:36:40;101018.34;;;19.67
76007;BMP280;64699;0.000;0.000;2024-02-14T01:39:06;101008.59;;;19.66
76007;BMP280;64699;0.000;0.000;2024-02-14T01:41:35;101023.09;;;19.66
76007;BMP280;64699;0.000;0.000;2024-02-14T01:44:01;101016.13;;;19.65
76007;BMP280;64699;0.000;0.000;2024-02-14T01:46:26;101009.13;;;19.64
76007;BMP280;64699;0.000;0.000;2024-02-14T01:48:51;101020.91;;;19.65
76007;BMP280;64699;0.000;0.000;2024-02-14T01:51:17;101017.88;;;19.63
76007;BMP280;64699;0.000;0.000;2024-02-14T01:53:44;101019.16;;;19.62
76007;BMP280;64699;0.000;0.000;2024-02-14T01:56:10;101021.91;;;19.62
76007;BMP280;64699;0.000;0.000;2024-02-14T01:58:36;101024.66;;;19.62
76007;BMP280;64699;0.000;0.000;2024-02-14T02:01:02;101024.66;;;19.62
76007;BMP280;64699;0.000;0.000;2024-02-14T02:03:28;101029.47;;;19.61
76007;BMP280;64699;0.000;0.000;2024-02-14T02:05:53;101027.22;;;19.60
76007;BMP280;64699;0.000;0.000;2024-02-14T02:08:19;101024.47;;;19.60
76007;BMP280;64699;0.000;0.000;2024-02-14T02:10:45;101023.72;;;19.59
76007;BMP280;64699;0.000;0.000;2024-02-14T02:13:10;101027.97;;;19.60
76007;BMP280;64699;0.000;0.000;2024-02-14T02:15:35;101027.00;;;19.58
76007;BMP280;64699;0.000;0.000;2024-02-14T02:18:02;101028.28;;;19.57
76007;BMP280;64699;0.000;0.000;2024-02-14T02:20:31;101033.81;;;19.57
76007;BMP280;64699;0.000;0.000;2024-02-14T02:22:57;101028.28;;;19.57
76007;BMP280;64699;0.000;0.000;2024-02-14T02:25:22;101038.56;;;19.56
76007;BMP280;64699;0.000;0.000;2024-02-14T02:27:50;101045.34;;;19.55
76007;BMP280;64699;0.000;0.000;2024-02-14T02:30:16;101041.50;;;19.58
76007;BMP280;64699;0.000;0.000;2024-02-14T02:32:42;101043.53;;;19.58
76007;BMP280;64699;0.000;0.000;2024-02-14T02:35:07;101037.28;;;19.57
76007;BMP280;64699;0.000;0.000;2024-02-14T02:37:33;101039.31;;;19.57
76007;BMP280;64699;0.000;0.000;2024-02-14T02:39:58;101045.56;;;19.57
76007;BMP280;64699;0.000;0.000;2024-02-14T02:42:23;101046.09;;;19.56
76007;BMP280;64699;0.000;0.000;2024-02-14T02:44:50;101047.59;;;19.57
76007;BMP280;64699;0.000;0.000;2024-02-14T02:47:15;101051.59;;;19.56
76007;BMP280;64699;0.000;0.000;2024-02-14T02:49:42;101050.09;;;19.55
76007;BMP280;64699;0.000;0.000;2024-02-14T02:52:09;101043.84;;;19.54
76007;BMP280;64699;0.000;0.000;2024-02-14T02:54:35;101054.09;;;19.54
76007;BMP280;64699;0.000;0.000;2024-02-14T02:57:00;101058.88;;;19.53
76007;BMP280;64699;0.000;0.000;2024-02-14T02:59:28;101051.91;;;19.52
76007;BMP280;64699;0.000;0.000;2024-02-14T03:01:54;101059.63;;;19.54
76007;BMP280;64699;0.000;0.000;2024-02-14T03:04:20;101054.88;;;19.54
76007;BMP280;64699;0.000;0.000;2024-02-14T03:06:45;101058.88;;;19.53
76007;BMP280;64699;0.000;0.000;2024-02-14T03:09:10;101071.19;;;19.52
76007;BMP280;64699;0.000;0.000;2024-02-14T03:11:37;101064.94;;;19.52
76007;BMP280;64699;0.000;0.000;2024-02-14T03:14:03;101077.22;;;19.51
76007;BMP280;64699;0.000;0.000;2024-02-14T03:16:28;101075.72;;;19.50
76007;BMP280;64699;0.000;0.000;2024-02-14T03:18:54;101085.25;;;19.49
76007;BMP280;64699;0.000;0.000;2024-02-14T03:21:19;101076.25;;;19.48
76007;BMP280;64699;0.000;0.000;2024-02-14T03:23:45;101081.75;;;19.48
76007;BMP280;64699;0.000;0.000;2024-02-14T03:26:11;101090.03;;;19.48
76007;BMP280;64699;0.000;0.000;2024-02-14T03:28:36;101092.06;;;19.48
76007;BMP280;64699;0.000;0.000;2024-02-14T03:31:01;101086.53;;;19.48
76007;BMP280;64699;0.000;0.000;2024-02-14T03:33:26;101089.03;;;19.46
76007;BMP280;64699;0.000;0.000;2024-02-14T03:35:54;101097.31;;;19.46
76007;BMP280;64699;0.000;0.000;2024-02-14T03:38:28;101097.31;;;19.46
76007;BMP280;64699;0.000;0.000;2024-02-14T03:40:54;101092.34;;;19.44
76007;BMP280;64699;0.000;0.000;2024-02-14T03:43:19;101088.84;;;19.44
76007;BMP280;64699;0.000;0.000;2024-02-14T03:45:45;101088.84;;;19.44
76007;BMP280;64699;0.000;0.000;2024-02-14T03:48:11;101092.84;;;19.43
76007;BMP280;64699;0.000;0.000;2024-02-14T03:50:38;101092.84;;;19.43
76007;BMP280;64699;0.000;0.000;2024-02-14T03:53:03;101092.09;;;19.42
76007;BMP280;64699;0.000;0.000;2024-02-14T03:55:28;101094.84;;;19.42
76007;BMP280;64699;0.000;0.000;2024-02-14T03:57:55;101095.38;;;19.41
76007;BMP280;64699;0.000;0.000;2024-02-14T04:00:20;101099.41;;;19.40
76007;BMP280;64699;0.000;0.000;2024-02-14T04:02:47;101095.38;;;19.41
76007;BMP280;64699;0.000;0.000;2024-02-14T04:05:13;101098.13;;;19.41
76007;BMP280;64699;0.000;0.000;2024-02-14T04:07:38;101106.41;;;19.41
76007;BMP280;64699;0.000;0.000;2024-02-14T04:10:04;101099.41;;;19.40
76007;BMP280;64699;0.000;0.000;2024-02-14T04:12:29;101100.66;;;19.39
76007;BMP280;64699;0.000;0.000;2024-02-14T04:14:54;101103.13;;;19.42
76007;BMP280;64699;0.000;0.000;2024-02-14T04:17:20;101102.38;;;19.42
76007;BMP280;64699;0.000;0.000;2024-02-14T04:19:45;101112.66;;;19.41
76007;BMP280;64699;0.000;0.000;2024-02-14T04:22:10;101098.66;;;19.39
76007;BMP280;64699;0.000;0.000;2024-02-14T04:24:35;101107.66;;;19.40
76007;BMP280;64699;0.000;0.000;2024-02-14T04:27:01;101113.72;;;19.38
76007;BMP280;64699;0.000;0.000;2024-02-14T04:29:28;101107.44;;;19.38
76007;BMP280;64699;0.000;0.000;2024-02-14T04:31:55;101099.16;;;19.38
76007;BMP280;64699;0.000;0.000;2024-02-14T04:34:20;101112.22;;;19.37
76007;BMP280;64699;0.000;0.000;2024-02-14T04:36:46;101105.22;;;19.36
76007;BMP280;64699;0.000;0.000;2024-02-14T04:39:11;101105.94;;;19.37
76007;BMP280;64699;0.000;0.000;2024-02-14T04:41:36;101113.47;;;19.36
76007;BMP280;64699;0.000;0.000;2024-02-14T04:44:03;101107.22;;;19.36
76007;BMP280;64699;0.000;0.000;2024-02-14T04:46:28;101112.75;;;19.36
76007;BMP280;64699;0.000;0.000;2024-02-14T04:48:54;101121.00;;;19.36
76007;BMP280;64699;0.000;0.000;2024-02-14T04:51:19;101118.47;;;19.38
76007;BMP280;64699;0.000;0.000;2024-02-14T04:53:45;101122.94;;;19.41
76007;BMP280;64699;0.000;0.000;2024-02-14T04:56:10;101119.16;;;19.44
76007;BMP280;64699;0.000;0.000;2024-02-14T04:58:35;101121.91;;;19.44
76007;BMP280;64699;0.000;0.000;2024-02-14T05:01:01;101121.91;;;19.44
76007;BMP280;64699;0.000;0.000;2024-02-14T05:03:27;101129.66;;;19.45
76007;BMP280;64699;0.000;0.000;2024-02-14T05:05:52;101123.84;;;19.49
76007;BMP280;64699;0.000;0.000;2024-02-14T05:08:17;101134.88;;;19.49
76007;BMP280;64699;0.000;0.000;2024-02-14T05:10:42;101134.34;;;19.50
76007;BMP280;64699;0.000;0.000;2024-02-14T05:13:08;101131.06;;;19.52
76007;BMP280;64699;0.000;0.000;2024-02-14T05:15:33;101131.28;;;19.54
76007;BMP280;64699;0.000;0.000;2024-02-14T05:18:00;101143.06;;;19.54
76007;BMP280;64699;0.000;0.000;2024-02-14T05:20:25;101133.75;;;19.57
76007;BMP280;64699;0.000;0.000;2024-02-14T05:22:50;101133.25;;;19.59
76007;BMP280;64699;0.000;0.000;2024-02-14T05:25:15;101134.72;;;19.60
76007;BMP280;64699;0.000;0.000;2024-02-14T05:27:41;101133.16;;;19.64
76007;BMP280;64699;0.000;0.000;2024-02-14T05:30:06;101133.38;;;19.66
76007;BMP280;64699;0.000;0.000;2024-02-14T05:32:32;101136.88;;;19.67
76007;BMP280;64699;0.000;0.000;2024-02-14T05:34:58;101138.63;;;19.70
76007;BMP280;64699;0.000;0.000;2024-02-14T05:37:23;101139.47;;;19.59
76007;BMP280;64699;0.000;0.000;2024-02-14T05:39:48;101152.75;;;19.61
76007;BMP280;64699;0.000;0.000;2024-02-14T05:42:13;101148.72;;;19.62
76007;BMP280;64699;0.000;0.000;2024-02-14T05:44:41;101144.69;;;19.63
76007;BMP280;64699;0.000;0.000;2024-02-14T05:47:07;101150.97;;;19.63
76007;BMP280;64699;0.000;0.000;2024-02-14T05:49:33;101152.47;;;19.64
76007;BMP280;64699;0.000;0.000;2024-02-14T05:51:58;101148.16;;;19.69
76007;BMP280;64699;0.000;0.000;2024-02-14T05:54:24;101155.44;;;19.66
76007;BMP280;64699;0.000;0.000;2024-02-14T05:56:50;101161.34;;;19.76
76007;BMP280;64699;0.000;0.000;2024-02-14T05:59:15;101169.16;;;19.90
76007;BMP280;64699;0.000;0.000;2024-02-14T06:01:40;101167.06;;;19.96
76007;BMP280;64699;0.000;0.000;2024-02-14T06:04:05;101167.66;;;20.07
76007;BMP280;64699;0.000;0.000;2024-02-14T06:06:31;101168.56;;;20.15
76007;BMP280;64699;0.000;0.000;2024-02-14T06:08:56;101164.75;;;20.18
76007;BMP280;64699;0.000;0.000;2024-02-14T06:11:22;101166.44;;;20.21
76007;BMP280;64699;0.000;0.000;2024-02-14T06:13:47;101174.22;;;20.23
76007;BMP280;64699;0.000;0.000;2024-02-14T06:16:13;101181.75;;;20.22
76007;BMP280;64699;0.000;0.000;2024-02-14T06:18:38;101173.47;;;20.22
76007;BMP280;64699;0.000;0.000;2024-02-14T06:21:04;101162.44;;;20.22
76007;BMP280;64699;0.000;0.000;2024-02-14T06:23:30;101179.94;;;20.25
76007;BMP280;64699;0.000;0.000;2024-02-14T06:25:55;101174.41;;;20.25
76007;BMP280;64699;0.000;0.000;2024-02-14T06:28:21;101177.19;;;20.25
76007;BMP280;64699;0.000;0.000;2024-02-14T06:30:46;101185.16;;;20.28
76007;BMP280;64699;0.000;0.000;2024-02-14T06:33:11;101179.44;;;20.26
76007;BMP280;64699;0.000;0.000;2024-02-14T06:35:36;101178.75;;;20.20
76007;BMP280;64699;0.000;0.000;2024-02-14T06:38:02;101177.72;;;20.23
76007;BMP280;64699;0.000;0.000;2024-02-14T06:40:27;101179.22;;;19.03
76007;BMP280;64699;0.000;0.000;2024-02-14T06:42:54;101182.31;;;18.94
76007;BMP280;64699;0.000;0.000;2024-02-14T06:45:19;101180.84;;;19.17
76007;BMP280;64699;0.000;0.000;2024-02-14T06:47:45;101187.56;;;19.64
76007;BMP280;64699;0.000;0.000;2024-02-14T06:50:10;101179.00;;;19.86
76007;BMP280;64699;0.000;0.000;2024-02-14T06:52:35;101181.13;;;19.98
76007;BMP280;64699;0.000;0.000;2024-02-14T06:55:00;101181.75;;;20.04
76007;BMP280;64699;0.000;0.000;2024-02-14T06:57:28;101182.72;;;20.06
76007;BMP280;64699;0.000;0.000;2024-02-14T06:59:54;101189.72;;;20.07
76007;BMP280;64699;0.000;0.000;2024-02-14T07:02:19;101188.72;;;20.10
76007;BMP280;64699;0.000;0.000;2024-02-14T07:04:44;101185.94;;;20.10
76007;BMP280;64699;0.000;0.000;2024-02-14T07:07:09;101190.19;;;20.11
76007;BMP280;64699;0.000;0.000;2024-02-14T07:09:34;101191.66;;;20.12
76007;BMP280;64699;0.000;0.000;2024-02-14T07:12:01;101188.91;;;20.12
76007;BMP280;64699;0.000;0.000;2024-02-14T07:14:27;101192.97;;;20.11
76007;BMP280;64699;0.000;0.000;2024-02-14T07:16:53;101194.44;;;20.12
76007;BMP280;64699;0.000;0.000;2024-02-14T07:19:18;101194.66;;;20.14
76007;BMP280;64699;0.000;0.000;2024-02-14T07:21:44;101197.19;;;20.12
76007;BMP280;64699;0.000;0.000;2024-02-14T07:24:09;101202.19;;;20.14
76007;BMP280;64699;0.000;0.000;2024-02-14T07:26:34;101200.69;;;20.13
76007;BMP280;64699;0.000;0.000;2024-02-14T07:28:59;101196.97;;;20.10
76007;BMP280;64699;0.000;0.000;2024-02-14T07:31:28;101194.22;;;20.10
76007;BMP280;64699;0.000;0.000;2024-02-14T07:33:53;101202.50;;;20.10
76007;BMP280;64699;0.000;0.000;2024-02-14T07:36:19;101202.69;;;20.12
76007;BMP280;64699;0.000;0.000;2024-02-14T07:38:44;101207.75;;;20.08
76007;BMP280;64699;0.000;0.000;2024-02-14T07:41:09;101196.72;;;20.08
76007;BMP280;64699;0.000;0.000;2024-02-14T07:43:34;101195.22;;;20.07
76007;BMP280;64699;0.000;0.000;2024-02-14T07:46:00;101202.25;;;20.08
76007;BMP280;64699;0.000;0.000;2024-02-14T07:48:25;101196.97;;;20.10
76007;BMP280;64699;0.000;0.000;2024-02-14T07:50:50;101204.81;;;20.06
76007;BMP280;64699;0.000;0.000;2024-02-14T07:53:15;101203.31;;;20.05
76007;BMP280;64699;0.000;0.000;2024-02-14T07:55:40;101203.31;;;20.05
76007;BMP280;64699;0.000;0.000;2024-02-14T07:58:06;101195.53;;;20.04
76007;BMP280;64699;0.000;0.000;2024-02-14T08:00:31;101199.59;;;20.03
76007;BMP280;64699;0.000;0.000;2024-02-14T08:02:56;101208.59;;;20.03
76007;BMP280;64699;0.000;0.000;2024-02-14T08:05:22;101209.88;;;20.02
76007;BMP280;64699;0.000;0.000;2024-02-14T08:07:47;101210.09;;;20.04
76007;BMP280;64699;0.000;0.000;2024-02-14T08:10:13;101211.34;;;20.03
76007;BMP280;64699;0.000;0.000;2024-02-14T08:12:38;101207.34;;;20.04
76007;BMP280;64699;0.000;0.000;2024-02-14T08:15:03;101200.31;;;20.03
76007;BMP280;64699;0.000;0.000;2024-02-14T08:17:31;101196.59;;;20.01
76007;BMP280;64699;0.000;0.000;2024-02-14T08:19:56;101209.13;;;20.02
76007;BMP280;64699;0.000;0.000;2024-02-14T08:22:21;101207.63;;;20.01
76007;BMP280;64699;0.000;0.000;2024-02-14T08:24:46;101203.19;;;19.98
76007;BMP280;64699;0.000;0.000;2024-02-14T08:27:11;101196.91;;;19.98
76007;BMP280;64699;0.000;0.000;2024-02-14T08:29:37;101196.91;;;19.98
76007;BMP280;64699;0.000;0.000;2024-02-14T08:32:02;101193.38;;;19.97
76007;BMP280;64699;0.000;0.000;2024-02-14T08:34:28;101195.41;;;19.97
76007;BMP280;64699;0.000;0.000;2024-02-14T08:36:54;101193.69;;;19.94
76007;BMP280;64699;0.000;0.000;2024-02-14T08:39:19;101193.91;;;19.96
76007;BMP280;64699;0.000;0.000;2024-02-14T08:41:45;101195.22;;;19.95
76007;BMP280;64699;0.000;0.000;2024-02-14T08:44:12;101190.41;;;19.95
76007;BMP280;64699;0.000;0.000;2024-02-14T08:46:37;101192.44;;;19.95
76007;BMP280;64699;0.000;0.000;2024-02-14T08:49:02;101200.47;;;19.93
76007;BMP280;64699;0.000;0.000;2024-02-14T08:51:30;101196.22;;;19.92
76007;BMP280;64699;0.000;0.000;2024-02-14T08:53:55;101198.25;;;19.91
76007;BMP280;64699;0.000;0.000;2024-02-14T08:56:24;101197.50;;;19.91
76007;BMP280;64699;0.000;0.000;2024-02-14T08:58:49;101197.50;;;19.91
76007;BMP280;64699;0.000;0.000;2024-02-14T09:01:14;101198.75;;;19.90
76007;BMP280;64699;0.000;0.000;2024-02-14T09:03:40;101201.72;;;19.92
76007;BMP280;64699;0.000;0.000;2024-02-14T09:06:08;101201.53;;;19.90
76007;BMP280;64699;0.000;0.000;2024-02-14T09:08:33;101196.00;;;19.90
76007;BMP280;64699;0.000;0.000;2024-02-14T09:10:58;101198.53;;;19.88
76007;BMP280;64699;0.000;0.000;2024-02-14T09:13:24;101193.03;;;19.88
76007;BMP280;64699;0.000;0.000;2024-02-14T09:15:50;101195.78;;;19.88
76007;BMP280;64699;0.000;0.000;2024-02-14T09:18:16;101189.50;;;19.87
76007;BMP280;64699;0.000;0.000;2024-02-14T09:20:43;101193.75;;;19.88
76007;BMP280;64699;0.000;0.000;2024-02-14T09:23:11;101196.31;;;19.86
76007;BMP280;64699;0.000;0.000;2024-02-14T09:25:36;101193.31;;;19.84
76007;BMP280;64699;0.000;0.000;2024-02-14T09:28:01;101187.03;;;19.84
76007;BMP280;64699;0.000;0.000;2024-02-14T09:30:26;101185.78;;;19.85
76007;BMP280;64699;0.000;0.000;2024-02-14T09:32:51;101189.59;;;19.82
76007;BMP280;64699;0.000;0.000;2024-02-14T09:35:17;101184.81;;;19.82
76007;BMP280;64699;0.000;0.000;2024-02-14T09:37:42;101178.56;;;19.82
76007;BMP280;64699;0.000;0.000;2024-02-14T09:40:07;101176.53;;;19.82
76007;BMP280;64699;0.000;0.000;2024-02-14T09:42:38;101179.84;;;19.81
76007;BMP280;64699;0.000;0.000;2024-02-14T09:45:04;101182.78;;;19.83
76007;BMP280;64699;0.000;0.000;2024-02-14T09:47:30;101193.75;;;19.70
76007;BMP280;64699;0.000;0.000;2024-02-14T09:49:57;101189.53;;;19.45
76007;BMP280;64699;0.000;0.000;2024-02-14T09:52:23;101190.91;;;17.48
76007;BMP280;64699;0.000;0.000;2024-02-14T09:54:49;101195.91;;;17.55
76007;BMP280;64699;0.000;0.000;2024-02-14T09:57:16;101195.25;;;18.35
76007;BMP280;64699;0.000;0.000;2024-02-14T09:59:41;101187.94;;;18.78
76007;BMP280;64699;0.000;0.000;2024-02-14T10:02:07;101188.50;;;19.00
76007;BMP280;64699;0.000;0.000;2024-02-14T10:04:35;101190.84;;;19.15
76007;BMP280;64699;0.000;0.000;2024-02-14T10:07:01;101185.75;;;19.24
76007;BMP280;64699;0.000;0.000;2024-02-14T10:09:26;101193.97;;;19.29
76007;BMP280;64699;0.000;0.000;2024-02-14T10:11:53;101188.16;;;19.33
76007;BMP280;64699;0.000;0.000;2024-02-14T10:14:19;101181.63;;;19.36
76007;BMP280;64699;0.000;0.000;2024-02-14T10:16:44;101182.59;;;19.38
76007;BMP280;64699;0.000;0.000;2024-02-14T10:19:14;101175.31;;;19.41
76007;BMP280;64699;0.000;0.000;2024-02-14T10:21:39;101175.75;;;19.45
76007;BMP280;64699;0.000;0.000;2024-02-14T10:24:05;101166.78;;;19.44
76007;BMP280;64699;0.000;0.000;2024-02-14T10:26:32;101177.50;;;19.48
76007;BMP280;64699;0.000;0.000;2024-02-14T10:28:57;101176.94;;;19.49
76007;BMP280;64699;0.000;0.000;2024-02-14T10:31:26;101175.19;;;19.52
76007;BMP280;64699;0.000;0.000;2024-02-14T10:33:52;101176.16;;;19.54
76007;BMP280;64699;0.000;0.000;2024-02-14T10:36:17;101169.66;;;19.52
76007;BMP280;64699;0.000;0.000;2024-02-14T10:38:45;101178.41;;;19.56
76007;BMP280;64699;0.000;0.000;2024-02-14T10:41:11;101178.59;;;19.58
76007;BMP280;64699;0.000;0.000;2024-02-14T10:43:37;101176.09;;;19.60
76007;BMP280;64699;0.000;0.000;2024-02-14T10:46:06;101172.06;;;19.61
76007;BMP280;64699;0.000;0.000;2024-02-14T10:48:32;101176.28;;;19.62
76007;BMP280;64699;0.000;0.000;2024-02-14T10:50:59;101163.78;;;19.61
76007;BMP280;64699;0.000;0.000;2024-02-14T10:53:27;101164.56;;;19.61
76007;BMP280;64699;0.000;0.000;2024-02-14T10:55:54;101166.75;;;19.63
76007;BMP280;64699;0.000;0.000;2024-02-14T10:58:20;101159.75;;;19.62
76007;BMP280;64699;0.000;0.000;2024-02-14T11:00:47;101162.75;;;19.64
76007;BMP280;64699;0.000;0.000;2024-02-14T11:03:12;101156.50;;;19.63
76007;BMP280;64699;0.000;0.000;2024-02-14T11:05:46;101151.47;;;19.62
76007;BMP280;64699;0.000;0.000;2024-02-14T11:08:15;101156.50;;;19.63
76007;BMP280;64699;0.000;0.000;2024-02-14T11:10:40;101155.72;;;19.63
76007;BMP280;64699;0.000;0.000;2024-02-14T11:13:09;101152.97;;;19.63
76007;BMP280;64699;0.000;0.000;2024-02-14T11:15:35;101146.22;;;19.64
76007;BMP280;64699;0.000;0.000;2024-02-14T11:18:04;101152.22;;;19.62
76007;BMP280;64699;0.000;0.000;2024-02-14T11:20:31;101151.72;;;19.64
76007;BMP280;64699;0.000;0.000;2024-02-14T11:22:57;101145.47;;;19.63
76007;BMP280;64699;0.000;0.000;2024-02-14T11:25:23;101146.22;;;19.64
76007;BMP280;64699;0.000;0.000;2024-02-14T11:27:49;101148.97;;;19.64
76007;BMP280;64699;0.000;0.000;2024-02-14T11:30:15;101132.66;;;19.66
76007;BMP280;64699;0.000;0.000;2024-02-14T11:32:52;101143.69;;;19.66
76007;BMP280;64699;0.000;0.000;2024-02-14T11:35:17;101142.63;;;19.69
76007;BMP280;64699;0.000;0.000;2024-02-14T11:37:44;101140.41;;;19.67
76007;BMP280;64699;0.000;0.000;2024-02-14T11:40:16;101141.13;;;19.68
76007;BMP280;64699;0.000;0.000;2024-02-14T11:42:44;101127.34;;;19.68
76007;BMP280;64699;0.000;0.000;2024-02-14T11:45:12;101133.63;;;19.68
76007;BMP280;64699;0.000;0.000;2024-02-14T11:47:38;101121.34;;;19.69
76007;BMP280;64699;0.000;0.000;2024-02-14T11:50:03;101124.09;;;19.69
76007;BMP280;64699;0.000;0.000;2024-02-14T11:52:29;101124.59;;;19.68
76007;BMP280;64699;0.000;0.000;2024-02-14T11:54:55;101118.34;;;19.67
76007;BMP280;64699;0.000;0.000;2024-02-14T11:57:22;101127.16;;;19.66
76007;BMP280;64699;0.000;0.000;2024-02-14T11:59:50;101132.88;;;19.68
76007;BMP280;64699;0.000;0.000;2024-02-14T12:02:17;101125.84;;;19.67
76007;BMP280;64699;0.000;0.000;2024-02-14T12:04:44;101133.94;;;19.65
76007;BMP280;64699;0.000;0.000;2024-02-14T12:07:10;101128.41;;;19.65
76007;BMP280;64699;0.000;0.000;2024-02-14T12:09:35;101125.09;;;19.66
76007;BMP280;64699;0.000;0.000;2024-02-14T12:12:00;101122.91;;;19.65
76007;BMP280;64699;0.000;0.000;2024-02-14T12:14:26;101122.34;;;19.66
76007;BMP280;64699;0.000;0.000;2024-02-14T12:16:56;101121.41;;;19.64
76007;BMP280;64699;0.000;0.000;2024-02-14T12:19:21;101121.16;;;19.62
76007;BMP280;64699;0.000;0.000;2024-02-14T12:21:46;101122.13;;;19.64
76007;BMP280;64699;0.000;0.000;2024-02-14T12:24:13;101121.91;;;19.62
76007;BMP280;64699;0.000;0.000;2024-02-14T12:26:39;101118.66;;;19.64
76007;BMP280;64699;0.000;0.000;2024-02-14T12:29:05;101122.66;;;19.63
76007;BMP280;64699;0.000;0.000;2024-02-14T12:31:32;101116.41;;;19.62
76007;BMP280;64699;0.000;0.000;2024-02-14T12:33:57;101115.63;;;19.62
76007;BMP280;64699;0.000;0.000;2024-02-14T12:36:25;101114.16;;;19.61
76007;BMP280;64699;0.000;0.000;2024-02-14T12:38:50;101113.44;;;19.60
76007;BMP280;64699;0.000;0.000;2024-02-14T12:41:18;101116.94;;;19.61
76007;BMP280;64699;0.000;0.000;2024-02-14T12:43:43;101117.44;;;19.59
76007;BMP280;64699;0.000;0.000;2024-02-14T12:46:08;101112.69;;;19.60
76007;BMP280;64699;0.000;0.000;2024-02-14T12:48:34;101120.72;;;19.58
76007;BMP280;64699;0.000;0.000;2024-02-14T12:50:59;101122.94;;;19.59
76007;BMP280;64699;0.000;0.000;2024-02-14T12:53:24;101126.47;;;19.60
76007;BMP280;64699;0.000;0.000;2024-02-14T12:55:50;101116.69;;;19.59
76007;BMP280;64699;0.000;0.000;2024-02-14T12:58:15;101117.97;;;19.58
76007;BMP280;64699;0.000;0.000;2024-02-14T13:00:41;101123.28;;;19.56
76007;BMP280;64699;0.000;0.000;2024-02-14T13:03:07;101128.25;;;19.57
76007;BMP280;64699;0.000;0.000;2024-02-14T13:05:33;101119.00;;;19.55
76007;BMP280;64699;0.000;0.000;2024-02-14T13:08:00;101123.28;;;19.56
76007;BMP280;64699;0.000;0.000;2024-02-14T13:10:26;101117.75;;;19.56
76007;BMP280;64699;0.000;0.000;2024-02-14T13:12:51;101116.25;;;19.55
76007;BMP280;64699;0.000;0.000;2024-02-14T13:15:17;101115.63;;;19.62
76007;BMP280;64699;0.000;0.000;2024-02-14T13:17:42;101112.69;;;19.60
76007;BMP280;64699;0.000;0.000;2024-02-14T13:20:07;101108.22;;;19.57
76007;BMP280;64699;0.000;0.000;2024-02-14T13:22:33;101112.25;;;19.56
76007;BMP280;64699;0.000;0.000;2024-02-14T13:24:58;101111.47;;;19.55
76007;BMP280;64699;0.000;0.000;2024-02-14T13:27:25;101111.97;;;19.54
76007;BMP280;64699;0.000;0.000;2024-02-14T13:29:50;101112.94;;;19.38
76007;BMP280;64699;0.000;0.000;2024-02-14T13:32:16;101116.25;;;19.55
76007;BMP280;64699;0.000;0.000;2024-02-14T13:34:41;101112.69;;;19.17
76007;BMP280;64699;0.000;0.000;2024-02-14T13:37:08;101110.31;;;19.09
76007;BMP280;64699;0.000;0.000;2024-02-14T13:39:34;101110.56;;;19.29
76007;BMP280;64699;0.000;0.000;2024-02-14T13:41:59;101109.69;;;19.39
76007;BMP280;64699;0.000;0.000;2024-02-14T13:44:26;101109.41;;;19.43
76007;BMP280;64699;0.000;0.000;2024-02-14T13:46:51;101113.66;;;19.44
76007;BMP280;64699;0.000;0.000;2024-02-14T13:49:18;101109.09;;;19.46
76007;BMP280;64699;0.000;0.000;2024-02-14T13:51:47;101111.34;;;19.48
76007;BMP280;64699;0.000;0.000;2024-02-14T13:54:12;101103.81;;;19.48
76007;BMP280;64699;0.000;0.000;2024-02-14T13:56:37;101104.31;;;19.47
76007;BMP280;64699;0.000;0.000;2024-02-14T13:59:03;101102.03;;;19.51
76007;BMP280;64699;0.000;0.000;2024-02-14T14:01:28;101104.78;;;19.51